createdAt,value
2023-03-27T00:00:57.812Z,8.68
2023-03-27T00:04:03.004Z,8.68
2023-03-27T00:07:06.124Z,8.63
2023-03-27T00:10:12.366Z,8.53
2023-03-27T00:13:17.970Z,8.58
2023-03-27T00:16:27.017Z,8.58
2023-03-27T00:19:34.094Z,8.56
2023-03-27T00:22:37.587Z,8.54
2023-03-27T00:25:42.144Z,8.50
2023-03-27T00:28:45.687Z,8.45
2023-03-27T00:31:49.546Z,8.39
2023-03-27T00:34:53.177Z,8.36
2023-03-27T00:37:57.330Z,8.34
2023-03-27T00:41:01.608Z,8.30
2023-03-27T00:44:22.753Z,8.27
2023-03-27T00:47:34.259Z,8.23
2023-03-27T00:50:42.681Z,8.17
2023-03-27T00:53:47.784Z,8.19
2023-03-27T00:56:51.532Z,8.16
2023-03-27T00:59:57.546Z,8.15
2023-03-27T01:03:05.873Z,8.13
2023-03-27T01:06:14.024Z,8.13
2023-03-27T01:09:20.322Z,8.14
2023-03-27T01:12:44.180Z,8.15
2023-03-27T01:16:04.929Z,8.09
2023-03-27T01:19:46.005Z,8.09
2023-03-27T01:22:56.715Z,8.11
2023-03-27T01:26:35.609Z,8.06
2023-03-27T01:30:03.018Z,8.06
2023-03-27T01:33:34.853Z,8.04
2023-03-27T01:36:40.950Z,8.03
2023-03-27T01:40:10.976Z,8.04
2023-03-27T01:43:26.654Z,8.03
2023-03-27T01:46:46.884Z,7.98
2023-03-27T01:50:08.185Z,7.98
2023-03-27T01:53:28.551Z,7.99
2023-03-27T01:56:37.798Z,7.98
2023-03-27T01:59:44.767Z,8.00
2023-03-27T02:03:04.598Z,7.97
2023-03-27T02:06:34.742Z,7.91
2023-03-27T02:09:47.782Z,7.92
2023-03-27T02:13:01.813Z,7.94
2023-03-27T02:16:09.122Z,7.93
2023-03-27T02:19:20.398Z,7.86
2023-03-27T02:22:37.602Z,7.89
2023-03-27T02:25:44.746Z,7.92
2023-03-27T02:29:12.611Z,7.89
2023-03-27T02:32:16.215Z,7.92
2023-03-27T02:35:46.340Z,7.90
2023-03-27T02:39:02.360Z,7.90
2023-03-27T02:42:16.844Z,7.86
2023-03-27T02:45:30.636Z,7.87
2023-03-27T02:48:42.547Z,7.89
2023-03-27T02:51:53.735Z,7.85
2023-03-27T02:55:06.723Z,7.80
2023-03-27T02:58:20.767Z,7.74
2023-03-27T03:01:26.917Z,7.78
2023-03-27T03:04:42.036Z,7.77
2023-03-27T03:07:46.631Z,7.75
2023-03-27T03:10:51.005Z,7.73
2023-03-27T03:13:54.255Z,7.72
2023-03-27T03:16:57.818Z,7.72
2023-03-27T03:20:01.010Z,7.63
2023-03-27T03:23:06.783Z,7.64
2023-03-27T03:26:12.376Z,7.61
2023-03-27T03:29:22.019Z,7.62
2023-03-27T03:32:27.685Z,7.60
2023-03-27T03:35:31.843Z,7.58
2023-03-27T03:38:41.512Z,7.59
2023-03-27T03:41:48.278Z,7.59
2023-03-27T03:44:51.475Z,7.59
2023-03-27T03:47:56.229Z,7.58
2023-03-27T03:51:02.267Z,7.58
2023-03-27T03:54:06.845Z,7.46
2023-03-27T03:57:10.042Z,7.59
2023-03-27T04:00:14.403Z,7.56
2023-03-27T04:03:20.917Z,7.56
2023-03-27T04:06:27.668Z,7.57
2023-03-27T04:09:33.100Z,7.55
2023-03-27T04:12:37.207Z,7.56
2023-03-27T04:15:41.784Z,7.55
2023-03-27T04:18:49.760Z,7.54
2023-03-27T04:21:54.650Z,7.51
2023-03-27T04:24:58.205Z,7.50
2023-03-27T04:28:04.434Z,7.46
2023-03-27T04:31:11.162Z,7.45
2023-03-27T04:34:20.637Z,7.43
2023-03-27T04:37:25.770Z,7.45
2023-03-27T04:40:30.933Z,7.42
2023-03-27T04:43:36.975Z,7.42
2023-03-27T04:46:42.077Z,7.32
2023-03-27T04:49:50.956Z,7.42
2023-03-27T04:52:58.948Z,7.37
2023-03-27T04:56:05.666Z,7.38
2023-03-27T04:59:09.074Z,7.37
2023-03-27T05:02:13.132Z,7.31
2023-03-27T05:05:18.609Z,7.40
2023-03-27T05:08:22.203Z,7.36
2023-03-27T05:11:25.845Z,7.40
2023-03-27T05:14:29.504Z,7.41
2023-03-27T05:17:42.237Z,7.44
2023-03-27T05:20:49.026Z,7.42
2023-03-27T05:23:53.478Z,7.46
2023-03-27T05:26:58.332Z,7.47
2023-03-27T05:30:02.575Z,7.43
2023-03-27T05:33:06.645Z,7.41
2023-03-27T05:36:10.477Z,7.44
2023-03-27T05:39:17.149Z,7.45
2023-03-27T05:42:20.797Z,7.42
2023-03-27T05:45:24.410Z,7.48
2023-03-27T05:48:28.008Z,7.46
2023-03-27T05:51:36.051Z,7.47
2023-03-27T05:54:39.135Z,7.47
2023-03-27T05:57:44.006Z,7.48
2023-03-27T06:00:48.179Z,7.46
2023-03-27T06:03:56.327Z,7.47
2023-03-27T06:07:03.227Z,7.41
2023-03-27T06:10:13.732Z,7.46
2023-03-27T06:13:21.853Z,7.47
2023-03-27T06:16:26.134Z,7.47
2023-03-27T06:19:30.802Z,7.48
2023-03-27T06:22:34.328Z,7.51
2023-03-27T06:25:39.499Z,7.50
2023-03-27T06:28:43.644Z,7.47
2023-03-27T06:31:48.531Z,7.46
2023-03-27T06:34:52.681Z,7.42
2023-03-27T06:38:00.861Z,7.33
2023-03-27T06:41:05.786Z,7.33
2023-03-27T06:44:11.436Z,7.22
2023-03-27T06:47:19.180Z,7.30
2023-03-27T06:50:26.755Z,7.30
2023-03-27T06:53:35.526Z,7.31
2023-03-27T06:56:40.850Z,7.35
2023-03-27T06:59:46.527Z,7.41
2023-03-27T07:02:57.861Z,7.48
2023-03-27T07:06:03.611Z,7.55
2023-03-27T07:09:08.453Z,7.62
2023-03-27T07:12:12.912Z,7.62
2023-03-27T07:15:17.985Z,7.62
2023-03-27T07:18:22.771Z,7.62
2023-03-27T07:21:26.599Z,7.62
2023-03-27T07:24:33.255Z,7.56
2023-03-27T07:27:37.727Z,7.49
2023-03-27T07:30:41.643Z,7.51
2023-03-27T07:33:46.517Z,7.48
2023-03-27T07:36:50.777Z,7.47
2023-03-27T07:39:54.028Z,7.48
2023-03-27T07:42:59.977Z,7.42
2023-03-27T07:46:06.278Z,7.38
2023-03-27T07:49:10.011Z,7.37
2023-03-27T07:52:14.739Z,7.40
2023-03-27T07:55:23.204Z,7.44
2023-03-27T07:58:29.538Z,7.45
2023-03-27T08:01:34.311Z,7.53
2023-03-27T08:04:38.482Z,7.54
2023-03-27T08:07:45.593Z,7.65
2023-03-27T08:10:55.170Z,7.65
2023-03-27T08:13:59.728Z,7.71
2023-03-27T08:17:15.166Z,7.71
2023-03-27T08:20:19.867Z,7.75
2023-03-27T08:23:27.210Z,7.77
2023-03-27T08:26:32.306Z,7.78
2023-03-27T08:29:37.614Z,7.78
2023-03-27T08:32:41.804Z,7.82
2023-03-27T08:35:48.852Z,7.79
2023-03-27T08:38:55.516Z,7.75
2023-03-27T08:42:03.171Z,7.72
2023-03-27T08:45:21.580Z,7.74
2023-03-27T08:48:52.510Z,7.75
2023-03-27T08:52:00.848Z,7.69
2023-03-27T08:55:19.683Z,7.64
2023-03-27T08:58:23.263Z,7.50
2023-03-27T09:02:14.538Z,7.53
2023-03-27T09:05:18.463Z,7.55
2023-03-27T09:08:47.196Z,7.54
2023-03-27T09:11:59.118Z,7.54
2023-03-27T09:15:07.662Z,7.52
2023-03-27T09:18:22.962Z,7.43
2023-03-27T09:21:47.022Z,7.35
2023-03-27T09:24:54.393Z,7.24
2023-03-27T09:28:01.610Z,7.20
2023-03-27T09:31:24.959Z,7.20
2023-03-27T09:34:34.107Z,7.19
2023-03-27T09:37:37.669Z,7.25
2023-03-27T09:40:53.366Z,7.23
2023-03-27T09:44:25.614Z,7.19
2023-03-27T09:47:35.781Z,7.16
2023-03-27T09:50:45.934Z,7.14
2023-03-27T09:53:59.477Z,7.13
2023-03-27T09:57:11.322Z,7.15
2023-03-27T10:00:29.343Z,7.14
2023-03-27T10:03:52.066Z,7.12
2023-03-27T10:07:01.738Z,7.10
2023-03-27T10:10:20.128Z,7.10
2023-03-27T10:13:29.572Z,7.06
2023-03-27T10:16:40.379Z,7.00
2023-03-27T10:19:45.179Z,6.94
2023-03-27T10:23:08.574Z,6.95
2023-03-27T10:26:17.058Z,6.91
2023-03-27T10:29:30.689Z,6.88
2023-03-27T10:33:00.410Z,6.84
2023-03-27T10:36:09.735Z,6.77
2023-03-27T10:39:14.721Z,6.80
2023-03-27T10:42:20.181Z,6.80
2023-03-27T10:45:24.062Z,6.80
2023-03-27T10:48:39.483Z,6.83
2023-03-27T10:52:03.222Z,6.85
2023-03-27T10:55:36.080Z,6.85
2023-03-27T10:59:11.538Z,6.84
2023-03-27T11:02:28.669Z,6.87
2023-03-27T11:05:39.130Z,6.83
2023-03-27T11:08:43.857Z,6.80
2023-03-27T11:11:54.512Z,6.78
2023-03-27T11:15:10.624Z,6.76
2023-03-27T11:18:25.044Z,6.76
2023-03-27T11:21:47.490Z,6.72
2023-03-27T11:25:06.013Z,6.69
2023-03-27T11:28:21.868Z,6.69
2023-03-27T11:31:40.227Z,6.66
2023-03-27T11:34:57.880Z,6.75
2023-03-27T11:38:19.708Z,6.68
2023-03-27T11:41:32.497Z,6.85
2023-03-27T11:44:37.180Z,6.82
2023-03-27T11:47:42.735Z,6.81
2023-03-27T11:50:57.847Z,6.80
2023-03-27T11:54:25.009Z,6.85
2023-03-27T11:57:29.043Z,6.94
2023-03-27T12:01:01.957Z,7.09
2023-03-27T12:04:29.164Z,7.15
2023-03-27T12:08:00.156Z,7.28
2023-03-27T12:11:08.706Z,7.38
2023-03-27T12:14:40.102Z,7.43
2023-03-27T12:18:36.133Z,7.60
2023-03-27T12:21:58.791Z,7.65
2023-03-27T12:25:20.171Z,7.93
2023-03-27T12:28:41.262Z,7.93
2023-03-27T12:32:04.018Z,7.95
2023-03-27T12:35:21.615Z,8.02
2023-03-27T12:38:30.578Z,8.15
2023-03-27T12:41:38.188Z,8.30
2023-03-27T12:45:14.740Z,8.40
2023-03-27T12:48:21.580Z,8.39
2023-03-27T12:51:54.553Z,8.25
2023-03-27T12:55:27.675Z,7.93
2023-03-27T12:58:36.999Z,7.58
2023-03-27T13:01:51.603Z,7.43
2023-03-27T13:05:26.985Z,7.39
2023-03-27T13:08:45.519Z,7.32
2023-03-27T13:12:28.375Z,7.27
2023-03-27T13:15:57.775Z,7.29
2023-03-27T13:19:15.497Z,7.19
2023-03-27T13:22:37.067Z,7.16
2023-03-27T13:26:04.518Z,7.05
2023-03-27T13:29:20.083Z,6.95
2023-03-27T13:32:38.224Z,6.84
2023-03-27T13:36:05.116Z,6.72
2023-03-27T13:39:22.316Z,6.58
2023-03-27T13:42:33.118Z,6.55
2023-03-27T13:45:46.713Z,6.43
2023-03-27T13:49:32.883Z,6.31
2023-03-27T13:53:05.947Z,6.19
2023-03-27T13:56:45.617Z,6.01
2023-03-27T14:00:00.241Z,5.86
2023-03-27T14:03:26.778Z,5.76
2023-03-27T14:06:52.698Z,5.70
2023-03-27T14:10:02.132Z,5.62
2023-03-27T14:13:43.355Z,5.63
2023-03-27T14:17:12.746Z,5.50
2023-03-27T14:20:25.413Z,5.48
2023-03-27T14:23:37.522Z,5.46
2023-03-27T14:26:46.139Z,5.40
2023-03-27T14:30:14.629Z,5.35
2023-03-27T14:33:20.559Z,5.26
2023-03-27T14:36:30.235Z,5.20
2023-03-27T14:39:38.499Z,5.20
2023-03-27T14:42:48.248Z,5.22
2023-03-27T14:45:54.528Z,5.21
2023-03-27T14:49:00.421Z,5.14
2023-03-27T14:52:07.880Z,5.12
2023-03-27T14:55:20.565Z,5.08
2023-03-27T14:58:25.758Z,5.04
2023-03-27T15:01:32.183Z,4.96
2023-03-27T15:04:40.320Z,4.81
2023-03-27T15:07:47.054Z,4.80
2023-03-27T15:10:54.232Z,4.77
2023-03-27T15:14:01.611Z,4.73
2023-03-27T15:17:19.330Z,4.66
2023-03-27T15:20:28.412Z,4.64
2023-03-27T15:24:18.178Z,4.65
2023-03-27T15:27:40.881Z,4.61
2023-03-27T15:30:54.167Z,4.56
2023-03-27T15:34:03.996Z,4.55
2023-03-27T15:37:16.699Z,4.53
2023-03-27T15:40:26.926Z,4.53
2023-03-27T15:43:32.048Z,4.48
2023-03-27T15:46:50.834Z,4.45
2023-03-27T15:50:17.696Z,4.45
2023-03-27T15:53:41.465Z,4.36
2023-03-27T15:56:45.164Z,4.29
2023-03-27T15:59:52.336Z,4.28
2023-03-27T16:02:57.111Z,4.27
2023-03-27T16:06:03.075Z,4.26
2023-03-27T16:09:23.589Z,4.26
2023-03-27T16:12:39.612Z,4.24
2023-03-27T16:15:45.179Z,4.21
2023-03-27T16:18:52.440Z,4.21
2023-03-27T16:21:57.464Z,4.28
2023-03-27T16:25:03.019Z,4.24
2023-03-27T16:28:09.857Z,4.08
2023-03-27T16:31:17.644Z,4.26
2023-03-27T16:34:22.982Z,4.30
2023-03-27T16:37:27.823Z,4.23
2023-03-27T16:40:32.201Z,4.25
2023-03-27T16:43:35.677Z,4.24
2023-03-27T16:46:39.487Z,4.22
2023-03-27T16:49:43.619Z,4.27
2023-03-27T16:52:47.658Z,4.24
2023-03-27T16:55:57.115Z,4.15
2023-03-27T16:59:04.670Z,4.16
2023-03-27T17:02:11.915Z,4.17
2023-03-27T17:05:16.587Z,4.17
2023-03-27T17:08:21.157Z,4.20
2023-03-27T17:11:26.348Z,4.25
2023-03-27T17:14:30.244Z,4.32
2023-03-27T17:17:33.855Z,4.19
2023-03-27T17:20:39.176Z,4.23
2023-03-27T17:23:44.017Z,4.23
2023-03-27T17:26:48.101Z,4.21
2023-03-27T17:29:52.572Z,4.20
2023-03-27T17:32:57.618Z,4.17
2023-03-27T17:36:02.119Z,4.17
2023-03-27T17:39:06.425Z,4.16
2023-03-27T17:42:10.493Z,4.09
2023-03-27T17:45:16.731Z,4.20
2023-03-27T17:48:20.973Z,4.17
2023-03-27T17:51:25.968Z,4.18
2023-03-27T17:54:31.206Z,4.12
2023-03-27T17:57:39.872Z,4.07
2023-03-27T18:00:44.619Z,3.93
2023-03-27T18:03:51.411Z,3.78
2023-03-27T18:06:55.238Z,3.78
2023-03-27T18:09:59.544Z,3.77
2023-03-27T18:13:04.318Z,3.66
2023-03-27T18:16:11.116Z,3.50
2023-03-27T18:19:16.899Z,3.41
2023-03-27T18:22:22.281Z,3.44
2023-03-27T18:25:27.422Z,3.28
2023-03-27T18:28:34.262Z,3.26
2023-03-27T18:31:39.072Z,3.14
2023-03-27T18:34:44.844Z,3.25
2023-03-27T18:37:49.509Z,3.17
2023-03-27T18:40:57.129Z,3.07
2023-03-27T18:44:01.670Z,3.16
2023-03-27T18:47:06.656Z,3.24
2023-03-27T18:50:13.784Z,3.18
2023-03-27T18:53:20.076Z,3.07
2023-03-27T18:56:30.035Z,3.05
2023-03-27T18:59:35.748Z,2.98
2023-03-27T19:02:40.946Z,3.02
2023-03-27T19:05:47.500Z,2.97
2023-03-27T19:08:51.572Z,2.99
2023-03-27T19:11:56.856Z,3.06
2023-03-27T19:15:20.786Z,3.04
2023-03-27T19:18:30.265Z,2.96
2023-03-27T19:21:37.282Z,2.99
2023-03-27T19:24:42.605Z,2.80
2023-03-27T19:27:47.228Z,2.87
2023-03-27T19:30:54.766Z,2.88
2023-03-27T19:33:59.907Z,2.72
2023-03-27T19:37:08.625Z,2.68
2023-03-27T19:40:15.826Z,2.68
2023-03-27T19:43:27.824Z,2.68
2023-03-27T19:46:32.395Z,2.64
2023-03-27T19:49:37.048Z,2.62
2023-03-27T19:52:43.147Z,2.45
2023-03-27T19:55:47.741Z,2.57
2023-03-27T19:58:52.875Z,2.51
2023-03-27T20:01:57.506Z,2.59
2023-03-27T20:05:05.412Z,2.51
2023-03-27T20:08:09.756Z,2.57
2023-03-27T20:11:17.189Z,2.50
2023-03-27T20:14:22.029Z,2.54
2023-03-27T20:17:28.353Z,2.36
2023-03-27T20:20:33.684Z,2.47
2023-03-27T20:23:37.957Z,2.39
2023-03-27T20:26:42.954Z,2.44
2023-03-27T20:29:51.675Z,2.56
2023-03-27T20:32:55.733Z,2.52
2023-03-27T20:36:00.222Z,2.62
2023-03-27T20:39:07.780Z,2.53
2023-03-27T20:42:15.198Z,2.35
2023-03-27T20:45:21.357Z,2.46
2023-03-27T20:48:25.295Z,2.25
2023-03-27T20:51:28.795Z,2.54
2023-03-27T20:54:35.152Z,2.49
2023-03-27T20:57:38.385Z,2.31
2023-03-27T21:00:43.832Z,2.55
2023-03-27T21:03:49.856Z,2.29
2023-03-27T21:06:57.891Z,2.35
2023-03-27T21:10:01.392Z,2.47
2023-03-27T21:13:05.753Z,2.36
2023-03-27T21:16:09.752Z,2.26
2023-03-27T21:19:13.376Z,2.31
2023-03-27T21:22:16.882Z,2.50
2023-03-27T21:25:22.292Z,2.29
2023-03-27T21:28:27.248Z,2.34
2023-03-27T21:31:31.924Z,2.31
2023-03-27T21:34:35.105Z,2.27
2023-03-27T21:37:38.772Z,2.36
2023-03-27T21:40:43.016Z,2.33
2023-03-27T21:43:46.929Z,2.07
2023-03-27T21:46:49.975Z,2.22
2023-03-27T21:49:53.422Z,2.33
2023-03-27T21:52:57.199Z,2.21
2023-03-27T21:56:01.302Z,2.26
2023-03-27T21:59:04.689Z,2.41
2023-03-27T22:02:08.288Z,2.17
2023-03-27T22:05:11.785Z,2.24
2023-03-27T22:08:15.536Z,2.18
2023-03-27T22:11:19.542Z,2.22
2023-03-27T22:14:24.001Z,2.20
2023-03-27T22:17:28.897Z,2.24
2023-03-27T22:20:37.588Z,2.24
2023-03-27T22:23:41.416Z,2.23
2023-03-27T22:26:45.843Z,2.23
2023-03-27T22:29:49.533Z,2.17
2023-03-27T22:32:53.096Z,2.20
2023-03-27T22:35:56.666Z,2.16
2023-03-27T22:39:00.334Z,2.14
2023-03-27T22:42:03.828Z,2.07
2023-03-27T22:45:07.759Z,2.08
2023-03-27T22:48:11.476Z,1.98
2023-03-27T22:51:14.624Z,2.06
2023-03-27T22:54:18.858Z,1.78
2023-03-27T22:57:22.047Z,1.78
2023-03-27T23:00:26.255Z,1.95
2023-03-27T23:03:29.478Z,1.96
2023-03-27T23:06:33.237Z,1.88
2023-03-27T23:09:36.751Z,1.81
2023-03-27T23:12:40.156Z,1.91
2023-03-27T23:15:44.788Z,1.71
2023-03-27T23:18:48.375Z,1.71
2023-03-27T23:21:52.261Z,1.85
2023-03-27T23:24:55.812Z,1.74
2023-03-27T23:27:58.943Z,1.77
2023-03-27T23:31:06.740Z,1.77
2023-03-27T23:34:09.939Z,1.93
2023-03-27T23:37:13.482Z,1.77
2023-03-27T23:40:17.404Z,1.81
2023-03-27T23:43:22.423Z,1.74
2023-03-27T23:46:25.686Z,1.77
2023-03-27T23:49:30.952Z,1.60
2023-03-27T23:52:34.141Z,1.60
2023-03-27T23:55:38.031Z,1.52
2023-03-27T23:58:41.274Z,1.46
